Latest Coastal Weather Observations for Mandora

IDW60701

Issued at 1:43 pm WST Tuesday 6 December 2016 (issued every 10 minutes, with the page automatically refreshed every 10 minutes)

About coastal observations | Map of coastal stations | Coastal observations for WA | Marine services | Other Formats
Station Details ID: 004019 Name: MANDORA Lat: -19.74 Lon: 120.84 Height: 7.5 m
Data from the previous 72 hours. | See also: Recent months at Mandora
Date/Time
WST
Temp
°C
Wind Pressure Rain since
9am
mm
Weather Cloud Vis
km
Sea
Height
m
Swell
Dir  Spd
kts
Gust
kts
hPa Trend Height
m
Period
s
Dir
06/01:30pm 31.4 NNE 7 9 1008.7 - 0.0 - - - - - - -
06/01:00pm 30.6 NNE 8 11 1009.3 - 0.0 - - - - - - -
06/12:30pm 30.5 N 9 13 1009.8 - 0.0 - - - - - - -
06/12:00pm 30.7 NNE 9 13 1010.1 - 0.0 - - - - - - -
06/11:30am 30.9 NNE 9 14 1010.3 - 0.0 - - - - - - -
06/11:00am 31.0 N 7 10 1010.4 - 0.0 - - - - - - -
06/10:30am 31.6 NE 3 5 1010.5 - 0.0 - - - - - - -
06/10:00am 31.0 NE 3 6 1010.5 - 0.0 - - - - - - -
06/09:30am 30.4 N 3 5 1010.8 - 0.0 - - - - - - -
06/09:00am 30.0 WNW 1 3 1011.0 - 0.2 - - - - - - -
06/08:30am 29.3 WNW 3 5 1011.0 - 0.2 - - - - - - -
06/08:00am 28.9 NW 4 5 1010.8 - 0.2 - - - - - - -
06/07:30am 28.8 W 2 4 1010.5 - 0.2 - - - - - - -
06/07:00am 28.1 S 2 4 1010.2 - 0.2 - - - - - - -
06/06:30am 27.1 SSE 2 4 1010.0 - 0.2 - - - - - - -
06/06:00am 25.5 S 4 4 1009.8 - 0.2 - - - - - - -
06/05:30am 25.2 ESE 3 4 1009.5 - 0.2 - - - - - - -
06/05:00am 25.0 SE 3 4 1009.1 - 0.2 - - - - - - -
06/04:30am 25.1 SSE 3 4 1008.9 - 0.2 - - - - - - -
06/04:00am 25.1 S 3 4 1008.9 - 0.2 - - - - - - -
06/03:30am 25.4 SE 3 4 1008.9 - 0.2 - - - - - - -
06/03:00am 25.3 SE 3 4 1008.9 - 0.2 - - - - - - -
06/02:30am 25.6 SE 3 5 1008.8 - 0.2 - - - - - - -
06/02:00am 25.8 E 3 5 1008.4 - 0.2 - - - - - - -
06/01:30am 25.8 E 2 4 1008.4 - 0.2 - - - - - - -
06/01:00am 25.9 ENE 3 4 1008.6 - 0.2 - - - - - - -
06/12:30am 25.9 ENE 5 6 1008.8 - 0.2 - - - - - - -
06/12:00am 25.7 ENE 4 6 1008.9 - 0.2 - - - - - - -
 
Date/Time
WST
Temp
°C
Wind Pressure Rain since
9am
mm
Weather Cloud Vis
km
Sea
Height
m
Swell
Dir  Spd
kts
Gust
kts
hPa Trend Height
m
Period
s
Dir
05/11:30pm 25.7 ENE 5 7 1009.0 - 0.2 - - - - - - -
05/11:00pm 25.8 ENE 4 5 1009.2 - 0.2 - - - - - - -
05/10:30pm 25.8 NE 5 6 1009.2 - 0.2 - - - - - - -
05/10:00pm 26.0 NE 4 6 1009.4 - 0.2 - - - - - - -
05/09:30pm 26.2 NE 4 5 1009.5 - 0.2 - - - - - - -
05/09:00pm 26.4 CALM 0 0 1009.4 - 0.2 - - - - - - -
05/08:30pm 26.6 N 3 4 1009.2 - 0.2 - - - - - - -
05/08:00pm 26.9 N 3 4 1009.0 - 0.2 - - - - - - -
05/07:30pm 27.2 N 4 5 1008.8 - 0.2 - - - - - - -
05/07:00pm 27.6 NNE 5 6 1008.3 - 0.2 - - - - - - -
05/06:30pm 28.2 N 8 11 1008.0 - 0.2 - - - - - - -
05/06:00pm 28.8 N 8 11 1008.0 - 0.2 - - - - - - -
05/05:30pm 29.4 N 9 13 1007.8 - 0.2 - - - - - - -
05/05:00pm 29.7 N 10 14 1007.6 - 0.2 - - - - - - -
05/04:30pm 29.6 NNW 8 12 1007.5 - 0.2 - - - - - - -
05/04:00pm 30.1 NNW 9 13 1007.6 - 0.2 - - - - - - -
05/03:30pm 29.8 NNW 10 13 1007.6 - 0.2 - - - - - - -
05/03:00pm 29.9 NNW 10 14 1007.8 - 0.2 - - - - - - -
05/02:30pm 29.7 N 9 12 1008.1 - 0.2 - - - - - - -
05/02:00pm 29.1 NNW 8 12 1008.5 - 0.2 - - - - - - -
05/01:30pm 29.3 NW 8 12 1008.4 - 0.2 - - - - - - -
05/01:00pm 29.7 NW 8 13 1008.4 - 0.2 - - - - - - -
05/12:30pm 30.2 NW 8 12 1008.5 - 0.2 - - - - - - -
05/12:00pm 31.2 WNW 7 12 1008.6 - 0.2 - - - - - - -
05/11:30am 30.7 WNW 8 12 1008.9 - 0.2 - - - - - - -
05/11:00am 29.6 WNW 8 11 1009.4 - 0.2 - - - - - - -
05/10:30am 29.4 W 5 9 1009.4 - 0.2 - - - - - - -
05/10:00am 27.7 NW 3 4 1009.5 - 0.2 - - - - - - -
05/09:30am 26.2 SSE 1 4 1009.5 - 0.2 - - - - - - -
05/09:00am 25.3 SSW 5 6 1009.9 - 3.8 Recent precip. - - - - - -
05/08:30am 25.1 W 7 10 1010.2 - 3.8 - - - - - - -
05/08:00am 25.3 W 7 11 1010.1 - 0.4 - - - - - - -
05/07:30am 27.5 WSW 1 4 1009.6 - 0.0 - - - - - - -
05/07:00am 26.7 S 3 4 1009.5 - 0.0 - - - - - - -
05/06:30am 25.9 NNE 3 5 1009.4 - 0.0 - - - - - - -
05/06:00am 25.5 NE 5 9 1009.2 - 0.0 - - - - - - -
05/05:30am 24.9 ENE 6 10 1009.0 - 0.0 - - - - - - -
05/05:00am 25.0 ENE 7 11 1008.8 - 0.0 - - - - - - -
05/04:30am 25.2 ENE 9 15 1008.7 - 0.0 - - - - - - -
05/04:00am 27.2 NNW 3 5 1008.2 - 0.0 - - - - - - -
05/03:30am 27.6 NNW 6 8 1008.3 - 0.0 - - - - - - -
05/03:00am 27.6 NNW 6 9 1008.3 - 0.0 - - - - - - -
05/02:30am 27.5 NNW 7 10 1008.3 - 0.0 - - - - - - -
05/02:00am 27.3 N 5 6 1008.2 - 0.0 - - - - - - -
05/01:30am 26.9 NNW 6 8 1008.3 - 0.0 - - - - - - -
05/01:00am 27.9 NNW 7 11 1008.5 - 0.0 - - - - - - -
05/12:30am 28.2 NNW 7 9 1008.5 - 0.0 - - - - - - -
05/12:00am 27.9 NW 6 9 1008.5 - 0.0 - - - - - - -
 
Date/Time
WST
Temp
°C
Wind Pressure Rain since
9am
mm
Weather Cloud Vis
km
Sea
Height
m
Swell
Dir  Spd
kts
Gust
kts
hPa Trend Height
m
Period
s
Dir
04/11:30pm 28.0 NW 5 7 1008.7 - 0.0 - - - - - - -
04/11:00pm 28.1 NW 6 9 1008.8 - 0.0 - - - - - - -
04/10:30pm 28.1 WNW 7 8 1008.8 - 0.0 - - - - - - -
04/10:00pm 28.2 NW 6 8 1009.0 - 0.0 - - - - - - -
04/09:30pm 28.2 WNW 7 10 1008.8 - 0.0 - - - - - - -
04/09:00pm 28.3 WNW 8 12 1008.7 - 0.0 - - - - - - -
04/08:30pm 28.4 WNW 9 13 1008.6 - 0.0 - - - - - - -
04/08:00pm 28.5 WNW 7 12 1008.3 - 0.0 - - - - - - -
04/07:30pm 28.6 WNW 8 12 1007.9 - 0.0 - - - - - - -
04/07:00pm 28.7 WNW 9 13 1007.6 - 0.0 - - - - - - -
04/06:30pm 28.9 WNW 9 14 1007.1 - 0.0 - - - - - - -
04/06:00pm 29.2 WNW 11 16 1006.6 - 0.0 - - - - - - -
04/05:30pm 29.5 WNW 12 17 1006.2 - 0.0 - - - - - - -
04/05:00pm 30.3 WNW 12 16 1006.0 - 0.0 - - - - - - -
04/04:30pm 30.6 W 12 18 1006.0 - 0.0 - - - - - - -
04/04:00pm 29.9 WNW 13 19 1006.1 - 0.0 - - - - - - -
04/03:30pm 30.2 WNW 13 19 1006.2 - 0.0 - - - - - - -
04/03:00pm 31.2 WNW 13 19 1006.5 - 0.0 - - - - - - -
04/02:30pm 33.0 WNW 14 21 1006.6 - 0.0 - - - - - - -
04/02:00pm 32.8 WNW 13 19 1006.7 - 0.0 - - - - - - -
04/01:30pm 33.7 WNW 13 19 1006.9 - 0.0 - - - - - - -
04/01:00pm 32.9 WNW 12 17 1007.2 - 0.0 - - - - - - -
04/12:30pm 31.9 WNW 12 19 1007.7 - 0.0 - - - - - - -
04/12:00pm 33.1 NW 13 21 1008.0 - 0.0 - - - - - - -
04/11:30am 32.4 NW 13 21 1008.3 - 0.0 - - - - - - -
04/11:00am 31.4 NW 14 19 1008.5 - 0.0 - - - - - - -
04/10:30am 32.1 NW 12 17 1008.6 - 0.0 - - - - - - -
04/10:00am 32.0 NW 10 18 1008.8 - 0.0 - - - - - - -
04/09:30am 31.0 NW 9 15 1008.9 - 0.0 - - - - - - -
04/09:00am 31.5 WNW 9 12 1008.9 - 0.0 - - - - - - -
04/08:30am 31.1 WNW 9 13 1009.0 - 0.0 - - - - - - -
04/08:00am 30.7 WNW 9 13 1008.9 - 0.0 - - - - - - -
04/07:30am 29.7 W 8 11 1008.8 - 0.0 - - - - - - -
04/07:00am 28.6 W 6 9 1009.0 - 0.0 - - - - - - -
04/06:30am 28.2 WSW 5 7 1009.0 - 0.0 - - - - - - -
04/06:00am 27.1 W 4 6 1008.6 - 0.0 - - - - - - -
04/05:30am 26.5 WSW 4 5 1008.5 - 0.0 - - - - - - -
04/05:00am 26.7 WSW 5 7 1008.1 - 0.0 - - - - - - -
04/04:30am 26.9 W 6 8 1007.9 - 0.0 - - - - - - -
04/04:00am 26.9 W 7 9 1007.6 - 0.0 - - - - - - -
04/03:30am 26.9 WNW 6 8 1007.5 - 0.0 - - - - - - -
04/03:00am 27.3 WNW 8 13 1007.5 - 0.0 - - - - - - -
04/02:30am 27.2 WNW 6 9 1007.5 - 0.0 - - - - - - -
04/02:00am 27.2 WNW 6 9 1007.7 - 0.0 - - - - - - -
04/01:30am 27.4 WNW 7 10 1007.6 - 0.0 - - - - - - -
04/01:00am 27.5 WNW 8 11 1007.7 - 0.0 - - - - - - -
04/12:30am 27.6 WNW 7 11 1008.0 - 0.0 - - - - - - -
04/12:00am 27.6 WNW 7 11 1008.0 - 0.0 - - - - - - -
 
Date/Time
WST
Temp
°C
Wind Pressure Rain since
9am
mm
Weather Cloud Vis
km
Sea
Height
m
Swell
Dir  Spd
kts
Gust
kts
hPa Trend Height
m
Period
s
Dir
03/11:30pm 27.6 W 9 14 1008.0 - 0.0 - - - - - - -
03/11:00pm 27.5 WNW 9 12 1008.2 - 0.0 - - - - - - -
03/10:30pm 27.6 WNW 8 12 1008.3 - 0.0 - - - - - - -
03/10:00pm 27.4 NW 7 9 1008.6 - 0.0 - - - - - - -
03/09:30pm 27.3 WNW 7 10 1008.6 - 0.0 - - - - - - -
03/09:00pm 27.5 WNW 8 13 1008.2 - 0.0 - - - - - - -
03/08:30pm 27.6 WNW 8 11 1008.0 - 0.0 - - - - - - -
03/08:00pm 27.5 NW 7 10 1007.9 - 0.0 - - - - - - -
03/07:30pm 27.7 NW 7 10 1007.4 - 0.0 - - - - - - -
03/07:00pm 27.9 NW 7 10 1007.3 - 0.0 - - - - - - -
03/06:30pm 28.2 NW 9 13 1007.0 - 0.0 - - - - - - -
03/06:00pm 28.6 NW 11 17 1006.6 - 0.0 - - - - - - -
03/05:30pm 29.7 NW 12 16 1006.4 - 0.0 - - - - - - -
03/05:00pm 30.4 WNW 11 15 1006.1 - 0.0 - - - - - - -
03/04:30pm 31.1 WNW 12 19 1005.9 - 0.0 - - - - - - -
03/04:00pm 31.3 WNW 14 20 1005.9 - 0.0 - - - - - - -
03/03:30pm 31.8 NW 11 19 1006.1 - 0.0 - - - - - - -
03/03:00pm 31.8 NW 12 19 1006.6 - 0.0 - - - - - - -
03/02:30pm 32.0 NW 13 19 1007.1 - 0.0 - - - - - - -
03/02:00pm 32.4 NW 13 19 1007.2 - 0.0 - - - - - - -

Other Formats:

Comma delimited format used in spreadsheet applications
http://www.bom.gov.au/fwo/IDW60701/IDW60701.94200.axf

JavaScript Object Notation format (JSON) in row-major order
http://www.bom.gov.au/fwo/IDW60701/IDW60701.94200.json